createdAt,value
2022-11-02T00:04:01.706Z,10.64
2022-11-02T00:09:09.817Z,10.67
2022-11-02T00:14:16.614Z,10.68
2022-11-02T00:19:23.265Z,10.67
2022-11-02T00:24:32.748Z,10.65
2022-11-02T00:29:39.335Z,10.66
2022-11-02T00:34:45.918Z,10.67
2022-11-02T00:39:54.622Z,10.66
2022-11-02T00:45:01.258Z,10.68
2022-11-02T00:50:10.400Z,10.70
2022-11-02T00:55:21.923Z,10.69
2022-11-02T01:00:29.318Z,10.69
2022-11-02T01:05:36.296Z,10.71
2022-11-02T01:10:48.095Z,10.69
2022-11-02T01:15:57.368Z,10.70
2022-11-02T01:21:03.830Z,10.69
2022-11-02T01:26:12.554Z,10.71
2022-11-02T01:31:20.198Z,10.69
2022-11-02T01:36:26.751Z,10.69
2022-11-02T01:41:34.683Z,10.69
2022-11-02T01:46:46.194Z,10.68
2022-11-02T01:52:01.878Z,10.68
2022-11-02T01:57:14.325Z,10.68
2022-11-02T02:02:24.575Z,10.71
2022-11-02T02:07:33.741Z,10.71
2022-11-02T02:12:43.471Z,10.72
2022-11-02T02:18:02.991Z,10.73
2022-11-02T02:23:56.280Z,10.74
2022-11-02T02:29:10.413Z,10.75
2022-11-02T02:34:23.138Z,10.77
2022-11-02T02:39:42.616Z,10.77
2022-11-02T02:45:02.423Z,10.78
2022-11-02T07:53:27.032Z,11.56
2022-11-02T07:58:34.717Z,11.53
2022-11-02T08:03:40.675Z,11.53
2022-11-02T08:08:47.142Z,11.57
2022-11-02T08:14:14.802Z,11.60
2022-11-02T08:19:21.320Z,11.61
2022-11-02T08:24:28.268Z,11.66
2022-11-02T08:29:37.221Z,11.72
2022-11-02T08:34:43.376Z,11.71
2022-11-02T08:39:50.057Z,11.77
2022-11-02T08:44:58.217Z,11.81
2022-11-02T08:50:05.209Z,11.81
2022-11-02T08:55:11.988Z,11.87
2022-11-02T09:00:22.188Z,11.89
2022-11-02T09:05:29.359Z,11.90
2022-11-02T09:10:38.801Z,11.95
2022-11-02T09:15:47.341Z,11.95
2022-11-02T09:20:54.128Z,11.98
2022-11-02T09:26:01.567Z,11.97
2022-11-02T09:31:11.626Z,12.00
2022-11-02T09:36:18.499Z,11.99
2022-11-02T09:41:35.537Z,11.99
2022-11-02T09:46:46.951Z,12.04
2022-11-02T09:51:56.809Z,12.09
2022-11-02T09:57:08.908Z,12.11
2022-11-02T10:02:29.032Z,12.12
2022-11-02T10:08:03.584Z,12.16
2022-11-02T10:13:30.725Z,12.20
2022-11-02T10:18:41.099Z,12.23
2022-11-02T10:23:52.803Z,12.25
2022-11-02T10:29:04.942Z,12.27
2022-11-02T10:34:26.049Z,12.27
2022-11-02T10:39:45.458Z,12.32
2022-11-02T10:45:21.196Z,12.37
2022-11-02T10:50:48.567Z,12.39
2022-11-02T10:56:05.199Z,12.43
2022-11-02T11:01:14.149Z,12.48
2022-11-02T11:06:23.312Z,12.55
2022-11-02T11:11:33.155Z,12.54
2022-11-02T11:16:43.343Z,12.55
2022-11-02T11:21:52.699Z,12.58
2022-11-02T11:27:21.448Z,12.58
2022-11-02T11:32:30.948Z,12.64
2022-11-02T11:37:49.267Z,12.71
2022-11-02T11:43:01.571Z,12.68
2022-11-02T11:48:21.621Z,12.66
2022-11-02T11:53:29.225Z,12.65
2022-11-02T11:58:37.041Z,12.68
2022-11-02T12:03:56.296Z,12.76
2022-11-02T12:09:16.746Z,12.82
2022-11-02T12:14:40.017Z,12.87
2022-11-02T12:20:09.350Z,12.98
2022-11-02T12:25:33.191Z,13.09
2022-11-02T12:30:52.216Z,13.15
2022-11-02T12:36:55.287Z,13.18
2022-11-02T12:42:25.174Z,13.15
2022-11-02T12:47:50.884Z,13.11
2022-11-02T12:53:20.440Z,13.06
2022-11-02T12:58:32.848Z,13.02
2022-11-02T13:03:50.327Z,12.99
2022-11-02T13:09:03.561Z,12.98
2022-11-02T13:14:17.231Z,12.97
2022-11-02T13:19:28.674Z,12.98
2022-11-02T13:24:42.217Z,12.99
2022-11-02T13:29:52.241Z,12.96
2022-11-02T13:34:58.689Z,12.96
2022-11-02T13:40:15.215Z,12.91
2022-11-02T13:45:47.794Z,12.87
2022-11-02T13:50:58.980Z,12.75
2022-11-02T13:56:10.807Z,12.73
2022-11-02T14:01:21.800Z,12.72
2022-11-02T14:06:28.521Z,12.70
2022-11-02T14:11:48.544Z,12.66
2022-11-02T14:17:18.134Z,12.60
2022-11-02T14:22:24.889Z,12.56
2022-11-02T14:27:32.418Z,12.49
2022-11-02T14:33:02.495Z,12.44
2022-11-02T14:38:37.875Z,12.39
2022-11-02T14:44:30.738Z,12.28
2022-11-02T14:49:44.027Z,12.23
2022-11-02T14:54:54.527Z,12.18
2022-11-02T15:00:04.295Z,12.11
2022-11-02T15:05:27.855Z,12.06
2022-11-02T15:10:51.764Z,12.01
2022-11-02T15:16:42.768Z,11.89
2022-11-02T15:21:52.117Z,11.81
2022-11-02T15:27:01.255Z,11.71
2022-11-02T15:32:17.068Z,11.57
2022-11-02T15:37:37.377Z,11.58
2022-11-02T15:43:06.804Z,11.48
2022-11-02T15:48:30.740Z,11.39
2022-11-02T15:54:18.358Z,11.23
2022-11-02T16:00:09.585Z,11.08
2022-11-02T16:05:23.096Z,11.01
2022-11-02T16:10:33.116Z,10.97
2022-11-02T16:15:42.576Z,10.81
2022-11-02T16:20:48.860Z,10.73
2022-11-02T16:25:59.646Z,10.65
2022-11-02T16:31:18.943Z,10.62
2022-11-02T16:36:27.966Z,10.58
2022-11-02T16:41:38.096Z,10.55
2022-11-02T16:46:51.006Z,10.47
2022-11-02T16:51:59.860Z,10.36
2022-11-02T16:57:14.906Z,10.33
2022-11-02T17:02:28.065Z,10.27
2022-11-02T17:07:37.435Z,10.25
2022-11-02T17:12:46.464Z,10.14
2022-11-02T17:18:12.974Z,10.18
2022-11-02T17:23:35.134Z,10.21
2022-11-02T17:28:49.028Z,10.20
2022-11-02T17:33:56.782Z,10.22
2022-11-02T17:39:05.812Z,10.18
2022-11-02T17:44:19.710Z,10.25
2022-11-02T17:49:26.022Z,10.21
2022-11-02T17:54:32.686Z,10.10
2022-11-02T17:59:41.760Z,10.09
2022-11-02T18:04:48.030Z,10.14
2022-11-02T18:09:55.561Z,10.14
2022-11-02T18:15:03.818Z,10.25
2022-11-02T18:20:12.219Z,10.34
2022-11-02T18:30:33.629Z,10.45
2022-11-02T18:35:40.790Z,10.45
2022-11-02T18:40:48.666Z,10.49
2022-11-02T18:45:56.972Z,10.51
2022-11-02T18:51:06.011Z,10.54
2022-11-02T18:56:13.823Z,10.58
2022-11-02T19:01:24.548Z,10.60
2022-11-02T19:06:57.024Z,10.58
2022-11-02T19:12:07.856Z,10.61
2022-11-02T19:17:17.503Z,10.61
2022-11-02T19:22:28.212Z,10.62
2022-11-02T19:27:38.075Z,10.61
2022-11-02T19:32:46.800Z,10.62
2022-11-02T19:37:57.697Z,10.63
2022-11-02T19:43:06.298Z,10.63
2022-11-02T19:48:14.862Z,10.63
2022-11-02T19:53:22.778Z,10.62
2022-11-02T19:58:30.188Z,10.61
2022-11-02T20:03:39.632Z,10.62
2022-11-02T20:08:49.443Z,10.60
2022-11-02T20:14:03.721Z,10.58
2022-11-02T20:19:12.842Z,10.53
2022-11-02T20:24:22.304Z,10.50
2022-11-02T20:29:29.769Z,10.48
2022-11-02T20:34:42.209Z,10.41
2022-11-02T20:39:50.457Z,10.33
2022-11-02T20:44:58.968Z,10.24
2022-11-02T20:50:12.841Z,10.14
2022-11-02T20:55:23.934Z,10.14
2022-11-02T21:00:31.724Z,10.07
2022-11-02T21:05:40.139Z,10.03
2022-11-02T21:10:57.607Z,9.98
2022-11-02T21:16:07.250Z,9.81
2022-11-02T21:21:18.889Z,9.77
2022-11-02T21:26:25.985Z,9.61
2022-11-02T21:31:34.296Z,9.66
2022-11-02T21:36:42.337Z,9.58
2022-11-02T21:41:48.999Z,9.53
2022-11-02T21:46:55.878Z,9.49
2022-11-02T21:52:04.036Z,9.32
2022-11-02T21:57:10.500Z,9.35
2022-11-02T22:02:17.994Z,9.33
2022-11-02T22:07:26.538Z,9.26
2022-11-02T22:12:50.433Z,9.21
2022-11-02T22:17:57.316Z,9.19
2022-11-02T22:23:06.072Z,9.24
2022-11-02T22:28:12.792Z,9.29
2022-11-02T22:33:19.361Z,9.29
2022-11-02T22:38:44.678Z,9.23
2022-11-02T22:43:53.105Z,9.26
2022-11-02T22:49:02.944Z,9.24
2022-11-02T22:54:15.192Z,9.17
2022-11-02T22:59:21.955Z,9.26
2022-11-02T23:04:28.680Z,9.27
2022-11-02T23:09:37.316Z,9.25
2022-11-02T23:14:44.379Z,9.15
2022-11-02T23:19:51.396Z,9.19
2022-11-02T23:25:15.349Z,9.15
2022-11-02T23:30:40.297Z,9.10
2022-11-02T23:36:03.984Z,9.14
2022-11-02T23:41:12.110Z,9.04
2022-11-02T23:46:19.209Z,9.07
2022-11-02T23:51:43.078Z,9.00
2022-11-02T23:56:51.116Z,9.02
